sensor_id;sensor_type;location;lat;lon;timestamp;P1;durP1;ratioP1;P2;durP2;ratioP2
56005;SDS011;41888;44.696;10.522;2024-01-16T00:00:54;87.18;;;40.60;;
56005;SDS011;41888;44.696;10.522;2024-01-16T00:03:20;82.15;;;40.88;;
56005;SDS011;41888;44.696;10.522;2024-01-16T00:05:46;90.03;;;41.88;;
56005;SDS011;41888;44.696;10.522;2024-01-16T00:08:12;98.63;;;44.28;;
56005;SDS011;41888;44.696;10.522;2024-01-16T00:10:39;94.22;;;44.13;;
56005;SDS011;41888;44.696;10.522;2024-01-16T00:13:05;93.70;;;45.65;;
56005;SDS011;41888;44.696;10.522;2024-01-16T00:15:32;94.43;;;46.10;;
56005;SDS011;41888;44.696;10.522;2024-01-16T00:17:58;90.72;;;43.55;;
56005;SDS011;41888;44.696;10.522;2024-01-16T00:20:24;80.47;;;40.45;;
56005;SDS011;41888;44.696;10.522;2024-01-16T00:22:50;87.22;;;43.63;;
56005;SDS011;41888;44.696;10.522;2024-01-16T00:25:17;92.63;;;43.65;;
56005;SDS011;41888;44.696;10.522;2024-01-16T00:27:46;90.70;;;42.72;;
56005;SDS011;41888;44.696;10.522;2024-01-16T00:30:12;87.40;;;40.92;;
56005;SDS011;41888;44.696;10.522;2024-01-16T00:32:39;83.22;;;40.28;;
56005;SDS011;41888;44.696;10.522;2024-01-16T00:35:05;79.75;;;39.45;;
56005;SDS011;41888;44.696;10.522;2024-01-16T00:37:32;80.95;;;39.85;;
56005;SDS011;41888;44.696;10.522;2024-01-16T00:39:58;71.63;;;37.15;;
56005;SDS011;41888;44.696;10.522;2024-01-16T00:42:24;80.32;;;39.95;;
56005;SDS011;41888;44.696;10.522;2024-01-16T00:44:50;80.82;;;41.40;;
56005;SDS011;41888;44.696;10.522;2024-01-16T00:47:17;86.32;;;42.08;;
56005;SDS011;41888;44.696;10.522;2024-01-16T00:49:43;87.80;;;39.20;;
56005;SDS011;41888;44.696;10.522;2024-01-16T00:52:09;85.32;;;40.83;;
56005;SDS011;41888;44.696;10.522;2024-01-16T00:54:36;85.15;;;40.53;;
56005;SDS011;41888;44.696;10.522;2024-01-16T00:57:02;93.07;;;42.47;;
56005;SDS011;41888;44.696;10.522;2024-01-16T00:59:28;86.57;;;40.35;;
56005;SDS011;41888;44.696;10.522;2024-01-16T01:01:54;84.38;;;42.55;;
56005;SDS011;41888;44.696;10.522;2024-01-16T01:04:21;88.90;;;41.65;;
56005;SDS011;41888;44.696;10.522;2024-01-16T01:06:47;109.03;;;45.35;;
56005;SDS011;41888;44.696;10.522;2024-01-16T01:09:13;91.30;;;42.30;;
56005;SDS011;41888;44.696;10.522;2024-01-16T01:11:39;92.40;;;41.53;;
56005;SDS011;41888;44.696;10.522;2024-01-16T01:14:05;90.18;;;42.63;;
56005;SDS011;41888;44.696;10.522;2024-01-16T01:16:32;89.70;;;41.25;;
56005;SDS011;41888;44.696;10.522;2024-01-16T01:18:58;91.22;;;40.60;;
56005;SDS011;41888;44.696;10.522;2024-01-16T01:21:24;79.63;;;38.95;;
56005;SDS011;41888;44.696;10.522;2024-01-16T01:23:50;80.40;;;40.42;;
56005;SDS011;41888;44.696;10.522;2024-01-16T01:26:16;84.57;;;39.47;;
56005;SDS011;41888;44.696;10.522;2024-01-16T01:28:44;81.35;;;39.40;;
56005;SDS011;41888;44.696;10.522;2024-01-16T01:31:10;89.07;;;38.40;;
56005;SDS011;41888;44.696;10.522;2024-01-16T01:33:37;84.78;;;38.97;;
56005;SDS011;41888;44.696;10.522;2024-01-16T01:36:04;90.55;;;40.60;;
56005;SDS011;41888;44.696;10.522;2024-01-16T01:38:31;87.55;;;39.22;;
56005;SDS011;41888;44.696;10.522;2024-01-16T01:40:57;100.65;;;41.00;;
56005;SDS011;41888;44.696;10.522;2024-01-16T01:43:24;84.15;;;38.00;;
56005;SDS011;41888;44.696;10.522;2024-01-16T01:48:19;78.07;;;36.20;;
56005;SDS011;41888;44.696;10.522;2024-01-16T01:50:46;80.07;;;36.72;;
56005;SDS011;41888;44.696;10.522;2024-01-16T01:53:12;71.65;;;34.42;;
56005;SDS011;41888;44.696;10.522;2024-01-16T01:55:38;68.68;;;36.67;;
56005;SDS011;41888;44.696;10.522;2024-01-16T01:58:05;77.03;;;36.50;;
56005;SDS011;41888;44.696;10.522;2024-01-16T02:00:32;75.28;;;35.75;;
56005;SDS011;41888;44.696;10.522;2024-01-16T02:02:59;65.32;;;32.40;;
56005;SDS011;41888;44.696;10.522;2024-01-16T02:05:25;64.40;;;31.73;;
56005;SDS011;41888;44.696;10.522;2024-01-16T02:07:52;72.03;;;31.92;;
56005;SDS011;41888;44.696;10.522;2024-01-16T02:10:18;75.50;;;35.20;;
56005;SDS011;41888;44.696;10.522;2024-01-16T02:12:45;70.90;;;33.80;;
56005;SDS011;41888;44.696;10.522;2024-01-16T02:15:11;70.43;;;32.42;;
56005;SDS011;41888;44.696;10.522;2024-01-16T02:17:38;76.07;;;35.88;;
56005;SDS011;41888;44.696;10.522;2024-01-16T02:20:04;74.70;;;33.95;;
56005;SDS011;41888;44.696;10.522;2024-01-16T02:22:32;74.43;;;33.17;;
56005;SDS011;41888;44.696;10.522;2024-01-16T02:25:00;78.43;;;34.83;;
56005;SDS011;41888;44.696;10.522;2024-01-16T02:27:27;83.07;;;36.90;;
56005;SDS011;41888;44.696;10.522;2024-01-16T02:29:53;71.07;;;34.85;;
56005;SDS011;41888;44.696;10.522;2024-01-16T02:32:19;62.35;;;32.22;;
56005;SDS011;41888;44.696;10.522;2024-01-16T02:34:45;67.25;;;31.73;;
56005;SDS011;41888;44.696;10.522;2024-01-16T02:37:11;74.35;;;33.10;;
56005;SDS011;41888;44.696;10.522;2024-01-16T02:39:38;77.15;;;33.75;;
56005;SDS011;41888;44.696;10.522;2024-01-16T02:42:05;71.88;;;33.33;;
56005;SDS011;41888;44.696;10.522;2024-01-16T02:44:31;71.88;;;32.28;;
56005;SDS011;41888;44.696;10.522;2024-01-16T02:46:57;66.40;;;30.10;;
56005;SDS011;41888;44.696;10.522;2024-01-16T02:49:24;65.95;;;31.50;;
56005;SDS011;41888;44.696;10.522;2024-01-16T02:51:51;70.03;;;31.17;;
56005;SDS011;41888;44.696;10.522;2024-01-16T02:54:27;65.93;;;31.17;;
56005;SDS011;41888;44.696;10.522;2024-01-16T02:56:53;62.60;;;29.27;;
56005;SDS011;41888;44.696;10.522;2024-01-16T02:59:19;63.83;;;28.88;;
56005;SDS011;41888;44.696;10.522;2024-01-16T03:01:46;63.15;;;28.70;;
56005;SDS011;41888;44.696;10.522;2024-01-16T03:04:12;54.70;;;27.63;;
56005;SDS011;41888;44.696;10.522;2024-01-16T03:06:38;64.25;;;29.65;;
56005;SDS011;41888;44.696;10.522;2024-01-16T03:09:05;57.40;;;27.73;;
56005;SDS011;41888;44.696;10.522;2024-01-16T03:11:31;61.92;;;27.35;;
56005;SDS011;41888;44.696;10.522;2024-01-16T03:13:58;57.35;;;28.67;;
56005;SDS011;41888;44.696;10.522;2024-01-16T03:16:24;67.63;;;29.63;;
56005;SDS011;41888;44.696;10.522;2024-01-16T03:18:50;62.10;;;28.70;;
56005;SDS011;41888;44.696;10.522;2024-01-16T03:21:17;60.05;;;28.42;;
56005;SDS011;41888;44.696;10.522;2024-01-16T03:23:43;57.70;;;28.90;;
56005;SDS011;41888;44.696;10.522;2024-01-16T03:26:13;57.95;;;27.08;;
56005;SDS011;41888;44.696;10.522;2024-01-16T03:28:39;67.43;;;30.67;;
56005;SDS011;41888;44.696;10.522;2024-01-16T03:31:06;69.43;;;31.98;;
56005;SDS011;41888;44.696;10.522;2024-01-16T03:33:32;57.78;;;27.95;;
56005;SDS011;41888;44.696;10.522;2024-01-16T03:36:00;53.70;;;24.92;;
56005;SDS011;41888;44.696;10.522;2024-01-16T03:38:26;63.40;;;29.55;;
56005;SDS011;41888;44.696;10.522;2024-01-16T03:40:52;56.35;;;26.73;;
56005;SDS011;41888;44.696;10.522;2024-01-16T03:43:18;56.22;;;25.67;;
56005;SDS011;41888;44.696;10.522;2024-01-16T03:45:45;49.25;;;24.42;;
56005;SDS011;41888;44.696;10.522;2024-01-16T03:48:11;47.17;;;22.52;;
56005;SDS011;41888;44.696;10.522;2024-01-16T03:50:37;52.63;;;24.65;;
56005;SDS011;41888;44.696;10.522;2024-01-16T03:53:04;51.30;;;24.50;;
56005;SDS011;41888;44.696;10.522;2024-01-16T03:55:30;50.05;;;23.02;;
56005;SDS011;41888;44.696;10.522;2024-01-16T03:57:57;51.25;;;24.92;;
56005;SDS011;41888;44.696;10.522;2024-01-16T04:00:23;51.63;;;23.90;;
56005;SDS011;41888;44.696;10.522;2024-01-16T04:02:50;47.25;;;23.95;;
56005;SDS011;41888;44.696;10.522;2024-01-16T04:05:16;49.08;;;22.88;;
56005;SDS011;41888;44.696;10.522;2024-01-16T04:07:42;40.75;;;21.00;;
56005;SDS011;41888;44.696;10.522;2024-01-16T04:10:08;49.65;;;24.30;;
56005;SDS011;41888;44.696;10.522;2024-01-16T04:12:34;49.00;;;23.73;;
56005;SDS011;41888;44.696;10.522;2024-01-16T04:15:00;47.55;;;22.45;;
56005;SDS011;41888;44.696;10.522;2024-01-16T04:17:27;45.88;;;23.48;;
56005;SDS011;41888;44.696;10.522;2024-01-16T04:19:53;45.55;;;22.48;;
56005;SDS011;41888;44.696;10.522;2024-01-16T04:22:19;44.60;;;21.35;;
56005;SDS011;41888;44.696;10.522;2024-01-16T04:24:46;51.90;;;25.20;;
56005;SDS011;41888;44.696;10.522;2024-01-16T04:27:12;55.67;;;24.85;;
56005;SDS011;41888;44.696;10.522;2024-01-16T04:29:39;50.22;;;24.30;;
56005;SDS011;41888;44.696;10.522;2024-01-16T04:32:05;59.05;;;26.25;;
56005;SDS011;41888;44.696;10.522;2024-01-16T04:34:31;62.33;;;26.17;;
56005;SDS011;41888;44.696;10.522;2024-01-16T04:36:57;50.00;;;21.27;;
56005;SDS011;41888;44.696;10.522;2024-01-16T04:39:23;52.15;;;24.88;;
56005;SDS011;41888;44.696;10.522;2024-01-16T04:41:49;52.13;;;23.75;;
56005;SDS011;41888;44.696;10.522;2024-01-16T04:44:16;53.03;;;23.15;;
56005;SDS011;41888;44.696;10.522;2024-01-16T04:46:42;48.08;;;22.80;;
56005;SDS011;41888;44.696;10.522;2024-01-16T04:49:08;51.67;;;22.92;;
56005;SDS011;41888;44.696;10.522;2024-01-16T04:51:34;47.97;;;21.88;;
56005;SDS011;41888;44.696;10.522;2024-01-16T04:54:00;45.67;;;21.60;;
56005;SDS011;41888;44.696;10.522;2024-01-16T04:56:27;37.80;;;19.55;;
56005;SDS011;41888;44.696;10.522;2024-01-16T04:58:53;46.40;;;21.38;;
56005;SDS011;41888;44.696;10.522;2024-01-16T05:01:19;44.55;;;21.38;;
56005;SDS011;41888;44.696;10.522;2024-01-16T05:03:45;51.20;;;24.85;;
56005;SDS011;41888;44.696;10.522;2024-01-16T05:06:12;40.17;;;20.88;;
56005;SDS011;41888;44.696;10.522;2024-01-16T05:08:39;43.00;;;20.27;;
56005;SDS011;41888;44.696;10.522;2024-01-16T05:11:06;43.65;;;19.58;;
56005;SDS011;41888;44.696;10.522;2024-01-16T05:13:33;39.90;;;20.50;;
56005;SDS011;41888;44.696;10.522;2024-01-16T05:15:59;41.47;;;21.80;;
56005;SDS011;41888;44.696;10.522;2024-01-16T05:18:26;31.50;;;18.42;;
56005;SDS011;41888;44.696;10.522;2024-01-16T05:20:52;35.72;;;18.17;;
56005;SDS011;41888;44.696;10.522;2024-01-16T05:23:19;43.15;;;19.83;;
56005;SDS011;41888;44.696;10.522;2024-01-16T05:25:45;45.15;;;22.13;;
56005;SDS011;41888;44.696;10.522;2024-01-16T05:28:11;40.78;;;19.65;;
56005;SDS011;41888;44.696;10.522;2024-01-16T05:30:37;46.70;;;22.95;;
56005;SDS011;41888;44.696;10.522;2024-01-16T05:33:03;45.83;;;22.27;;
56005;SDS011;41888;44.696;10.522;2024-01-16T05:35:30;46.35;;;22.80;;
56005;SDS011;41888;44.696;10.522;2024-01-16T05:37:56;44.88;;;22.30;;
56005;SDS011;41888;44.696;10.522;2024-01-16T05:40:24;50.05;;;24.23;;
56005;SDS011;41888;44.696;10.522;2024-01-16T05:42:51;55.78;;;25.48;;
56005;SDS011;41888;44.696;10.522;2024-01-16T05:45:17;50.45;;;24.05;;
56005;SDS011;41888;44.696;10.522;2024-01-16T05:47:44;54.40;;;26.83;;
56005;SDS011;41888;44.696;10.522;2024-01-16T05:50:11;53.53;;;23.80;;
56005;SDS011;41888;44.696;10.522;2024-01-16T05:52:37;53.75;;;24.30;;
56005;SDS011;41888;44.696;10.522;2024-01-16T05:55:05;53.17;;;25.95;;
56005;SDS011;41888;44.696;10.522;2024-01-16T05:57:32;51.70;;;25.85;;
56005;SDS011;41888;44.696;10.522;2024-01-16T05:59:59;53.47;;;25.83;;
56005;SDS011;41888;44.696;10.522;2024-01-16T06:02:28;53.30;;;26.90;;
56005;SDS011;41888;44.696;10.522;2024-01-16T06:04:55;57.92;;;28.02;;
56005;SDS011;41888;44.696;10.522;2024-01-16T06:07:21;56.45;;;27.65;;
56005;SDS011;41888;44.696;10.522;2024-01-16T06:09:47;67.07;;;29.92;;
56005;SDS011;41888;44.696;10.522;2024-01-16T06:12:13;75.03;;;32.03;;
56005;SDS011;41888;44.696;10.522;2024-01-16T06:14:40;71.97;;;31.30;;
56005;SDS011;41888;44.696;10.522;2024-01-16T06:17:06;71.93;;;32.05;;
56005;SDS011;41888;44.696;10.522;2024-01-16T06:19:32;74.97;;;34.22;;
56005;SDS011;41888;44.696;10.522;2024-01-16T06:21:59;81.25;;;34.75;;
56005;SDS011;41888;44.696;10.522;2024-01-16T06:24:25;85.72;;;33.78;;
56005;SDS011;41888;44.696;10.522;2024-01-16T06:26:51;71.72;;;32.00;;
56005;SDS011;41888;44.696;10.522;2024-01-16T06:29:17;68.65;;;28.48;;
56005;SDS011;41888;44.696;10.522;2024-01-16T06:31:44;65.60;;;28.38;;
56005;SDS011;41888;44.696;10.522;2024-01-16T06:34:10;62.70;;;29.60;;
56005;SDS011;41888;44.696;10.522;2024-01-16T06:36:36;64.97;;;29.00;;
56005;SDS011;41888;44.696;10.522;2024-01-16T06:39:02;53.92;;;26.55;;
56005;SDS011;41888;44.696;10.522;2024-01-16T06:41:28;57.22;;;27.27;;
56005;SDS011;41888;44.696;10.522;2024-01-16T06:43:55;56.33;;;26.77;;
56005;SDS011;41888;44.696;10.522;2024-01-16T06:46:21;69.05;;;33.58;;
56005;SDS011;41888;44.696;10.522;2024-01-16T06:48:47;58.53;;;27.20;;
56005;SDS011;41888;44.696;10.522;2024-01-16T06:51:14;63.83;;;28.75;;
56005;SDS011;41888;44.696;10.522;2024-01-16T06:53:41;60.92;;;27.35;;
56005;SDS011;41888;44.696;10.522;2024-01-16T06:56:07;61.42;;;27.00;;
56005;SDS011;41888;44.696;10.522;2024-01-16T06:58:33;63.08;;;30.58;;
56005;SDS011;41888;44.696;10.522;2024-01-16T07:01:00;63.72;;;29.23;;
56005;SDS011;41888;44.696;10.522;2024-01-16T07:03:26;60.42;;;28.38;;
56005;SDS011;41888;44.696;10.522;2024-01-16T07:05:53;49.80;;;28.25;;
56005;SDS011;41888;44.696;10.522;2024-01-16T07:08:19;61.25;;;28.95;;
56005;SDS011;41888;44.696;10.522;2024-01-16T07:10:45;59.40;;;28.88;;
56005;SDS011;41888;44.696;10.522;2024-01-16T07:13:11;66.70;;;30.38;;
56005;SDS011;41888;44.696;10.522;2024-01-16T07:15:39;70.05;;;31.10;;
56005;SDS011;41888;44.696;10.522;2024-01-16T07:18:05;76.50;;;31.40;;
56005;SDS011;41888;44.696;10.522;2024-01-16T07:20:31;72.18;;;30.92;;
56005;SDS011;41888;44.696;10.522;2024-01-16T07:22:58;65.85;;;30.63;;
56005;SDS011;41888;44.696;10.522;2024-01-16T07:25:24;60.30;;;28.70;;
56005;SDS011;41888;44.696;10.522;2024-01-16T07:27:50;75.22;;;33.00;;
56005;SDS011;41888;44.696;10.522;2024-01-16T07:30:16;68.80;;;34.40;;
56005;SDS011;41888;44.696;10.522;2024-01-16T07:32:42;64.20;;;31.85;;
56005;SDS011;41888;44.696;10.522;2024-01-16T07:35:09;69.38;;;31.35;;
56005;SDS011;41888;44.696;10.522;2024-01-16T07:37:35;75.00;;;32.55;;
56005;SDS011;41888;44.696;10.522;2024-01-16T07:40:01;72.03;;;33.92;;
56005;SDS011;41888;44.696;10.522;2024-01-16T07:42:30;74.75;;;33.10;;
56005;SDS011;41888;44.696;10.522;2024-01-16T07:44:59;72.80;;;31.42;;
56005;SDS011;41888;44.696;10.522;2024-01-16T07:47:29;76.47;;;33.00;;
56005;SDS011;41888;44.696;10.522;2024-01-16T07:49:56;73.38;;;31.10;;
56005;SDS011;41888;44.696;10.522;2024-01-16T07:52:23;64.95;;;33.40;;
56005;SDS011;41888;44.696;10.522;2024-01-16T07:54:49;68.90;;;31.38;;
56005;SDS011;41888;44.696;10.522;2024-01-16T07:57:15;77.82;;;34.45;;
56005;SDS011;41888;44.696;10.522;2024-01-16T07:59:41;71.25;;;33.20;;
56005;SDS011;41888;44.696;10.522;2024-01-16T08:02:07;72.53;;;34.03;;
56005;SDS011;41888;44.696;10.522;2024-01-16T08:04:34;70.88;;;34.70;;
56005;SDS011;41888;44.696;10.522;2024-01-16T08:07:00;75.20;;;35.38;;
56005;SDS011;41888;44.696;10.522;2024-01-16T08:09:27;62.78;;;31.92;;
56005;SDS011;41888;44.696;10.522;2024-01-16T08:11:53;73.25;;;35.35;;
56005;SDS011;41888;44.696;10.522;2024-01-16T08:14:19;65.90;;;33.35;;
56005;SDS011;41888;44.696;10.522;2024-01-16T08:16:45;69.82;;;35.35;;
56005;SDS011;41888;44.696;10.522;2024-01-16T08:19:12;69.47;;;32.75;;
56005;SDS011;41888;44.696;10.522;2024-01-16T08:21:39;70.00;;;31.30;;
56005;SDS011;41888;44.696;10.522;2024-01-16T08:24:06;73.35;;;32.28;;
56005;SDS011;41888;44.696;10.522;2024-01-16T08:26:32;68.10;;;32.88;;
56005;SDS011;41888;44.696;10.522;2024-01-16T08:28:58;61.33;;;31.55;;
56005;SDS011;41888;44.696;10.522;2024-01-16T08:31:24;74.28;;;33.45;;
56005;SDS011;41888;44.696;10.522;2024-01-16T08:33:51;70.43;;;34.63;;
56005;SDS011;41888;44.696;10.522;2024-01-16T08:36:20;68.85;;;31.23;;
56005;SDS011;41888;44.696;10.522;2024-01-16T08:38:46;62.35;;;30.02;;
56005;SDS011;41888;44.696;10.522;2024-01-16T08:41:13;67.43;;;31.33;;
56005;SDS011;41888;44.696;10.522;2024-01-16T08:43:39;66.00;;;32.22;;
56005;SDS011;41888;44.696;10.522;2024-01-16T08:46:05;69.00;;;34.03;;
56005;SDS011;41888;44.696;10.522;2024-01-16T08:48:32;77.68;;;35.92;;
56005;SDS011;41888;44.696;10.522;2024-01-16T08:50:58;72.00;;;33.55;;
56005;SDS011;41888;44.696;10.522;2024-01-16T08:53:24;73.40;;;36.85;;
56005;SDS011;41888;44.696;10.522;2024-01-16T08:55:50;68.82;;;34.33;;
56005;SDS011;41888;44.696;10.522;2024-01-16T08:58:17;72.80;;;36.75;;
56005;SDS011;41888;44.696;10.522;2024-01-16T09:00:43;78.65;;;38.13;;
56005;SDS011;41888;44.696;10.522;2024-01-16T09:03:09;72.18;;;36.97;;
56005;SDS011;41888;44.696;10.522;2024-01-16T09:05:36;63.13;;;35.63;;
56005;SDS011;41888;44.696;10.522;2024-01-16T09:08:03;65.03;;;34.28;;
56005;SDS011;41888;44.696;10.522;2024-01-16T09:10:30;61.38;;;33.25;;
56005;SDS011;41888;44.696;10.522;2024-01-16T09:12:56;57.30;;;31.90;;
56005;SDS011;41888;44.696;10.522;2024-01-16T09:15:22;61.53;;;31.17;;
56005;SDS011;41888;44.696;10.522;2024-01-16T09:17:48;60.33;;;31.48;;
56005;SDS011;41888;44.696;10.522;2024-01-16T09:20:15;61.83;;;31.13;;
56005;SDS011;41888;44.696;10.522;2024-01-16T09:22:42;67.63;;;33.30;;
56005;SDS011;41888;44.696;10.522;2024-01-16T09:25:08;56.70;;;32.80;;
56005;SDS011;41888;44.696;10.522;2024-01-16T09:27:34;62.20;;;33.10;;
56005;SDS011;41888;44.696;10.522;2024-01-16T09:30:00;67.45;;;35.08;;
56005;SDS011;41888;44.696;10.522;2024-01-16T09:32:26;65.63;;;33.55;;
56005;SDS011;41888;44.696;10.522;2024-01-16T09:34:53;67.60;;;34.15;;
56005;SDS011;41888;44.696;10.522;2024-01-16T09:37:19;64.75;;;33.88;;
56005;SDS011;41888;44.696;10.522;2024-01-16T09:39:45;59.50;;;32.42;;
56005;SDS011;41888;44.696;10.522;2024-01-16T09:42:11;60.15;;;33.35;;
56005;SDS011;41888;44.696;10.522;2024-01-16T09:44:38;59.75;;;33.42;;
56005;SDS011;41888;44.696;10.522;2024-01-16T09:47:04;62.67;;;33.30;;
56005;SDS011;41888;44.696;10.522;2024-01-16T09:49:32;59.53;;;32.95;;
56005;SDS011;41888;44.696;10.522;2024-01-16T09:51:58;66.72;;;34.97;;
56005;SDS011;41888;44.696;10.522;2024-01-16T09:54:26;61.80;;;34.17;;
56005;SDS011;41888;44.696;10.522;2024-01-16T09:56:53;72.72;;;36.72;;
56005;SDS011;41888;44.696;10.522;2024-01-16T09:59:23;71.57;;;39.20;;
56005;SDS011;41888;44.696;10.522;2024-01-16T10:01:54;70.15;;;41.13;;
56005;SDS011;41888;44.696;10.522;2024-01-16T10:04:21;71.28;;;41.15;;
56005;SDS011;41888;44.696;10.522;2024-01-16T10:06:48;68.78;;;37.20;;
56005;SDS011;41888;44.696;10.522;2024-01-16T10:09:14;74.90;;;36.20;;
56005;SDS011;41888;44.696;10.522;2024-01-16T10:11:41;69.80;;;37.58;;
56005;SDS011;41888;44.696;10.522;2024-01-16T10:14:08;67.72;;;36.17;;
56005;SDS011;41888;44.696;10.522;2024-01-16T10:16:56;68.85;;;37.78;;
56005;SDS011;41888;44.696;10.522;2024-01-16T10:22:03;65.85;;;37.70;;
56005;SDS011;41888;44.696;10.522;2024-01-16T10:27:00;73.30;;;37.30;;
56005;SDS011;41888;44.696;10.522;2024-01-16T10:29:31;64.82;;;37.30;;
56005;SDS011;41888;44.696;10.522;2024-01-16T10:31:57;68.28;;;37.47;;
56005;SDS011;41888;44.696;10.522;2024-01-16T10:34:24;73.53;;;38.53;;
56005;SDS011;41888;44.696;10.522;2024-01-16T10:36:51;67.22;;;37.22;;
56005;SDS011;41888;44.696;10.522;2024-01-16T10:39:23;66.55;;;38.58;;
56005;SDS011;41888;44.696;10.522;2024-01-16T10:41:56;66.55;;;38.05;;
56005;SDS011;41888;44.696;10.522;2024-01-16T10:44:23;77.65;;;42.22;;
56005;SDS011;41888;44.696;10.522;2024-01-16T10:46:50;71.57;;;41.25;;
56005;SDS011;41888;44.696;10.522;2024-01-16T10:49:16;70.10;;;39.20;;
56005;SDS011;41888;44.696;10.522;2024-01-16T10:51:43;65.85;;;39.45;;
56005;SDS011;41888;44.696;10.522;2024-01-16T10:54:12;70.60;;;41.47;;
56005;SDS011;41888;44.696;10.522;2024-01-16T10:56:45;75.05;;;41.50;;
56005;SDS011;41888;44.696;10.522;2024-01-16T10:59:16;75.18;;;40.90;;
56005;SDS011;41888;44.696;10.522;2024-01-16T11:01:50;72.93;;;42.10;;
56005;SDS011;41888;44.696;10.522;2024-01-16T11:04:20;70.18;;;39.17;;
56005;SDS011;41888;44.696;10.522;2024-01-16T11:06:51;60.88;;;35.25;;
56005;SDS011;41888;44.696;10.522;2024-01-16T11:09:18;63.47;;;36.72;;
56005;SDS011;41888;44.696;10.522;2024-01-16T11:11:45;59.95;;;36.45;;
56005;SDS011;41888;44.696;10.522;2024-01-16T11:14:15;61.58;;;36.22;;
56005;SDS011;41888;44.696;10.522;2024-01-16T11:16:42;73.43;;;38.83;;
56005;SDS011;41888;44.696;10.522;2024-01-16T11:19:11;71.70;;;40.10;;
56005;SDS011;41888;44.696;10.522;2024-01-16T11:21:38;68.57;;;38.45;;
56005;SDS011;41888;44.696;10.522;2024-01-16T11:24:05;64.75;;;35.83;;
56005;SDS011;41888;44.696;10.522;2024-01-16T11:26:33;66.43;;;35.58;;
56005;SDS011;41888;44.696;10.522;2024-01-16T11:29:33;62.35;;;33.53;;
56005;SDS011;41888;44.696;10.522;2024-01-16T11:31:53;57.88;;;34.92;;
56005;SDS011;41888;44.696;10.522;2024-01-16T11:37:07;51.67;;;30.08;;
56005;SDS011;41888;44.696;10.522;2024-01-16T11:39:35;45.38;;;28.42;;
56005;SDS011;41888;44.696;10.522;2024-01-16T11:42:01;42.08;;;26.40;;
56005;SDS011;41888;44.696;10.522;2024-01-16T11:44:43;46.08;;;27.27;;
56005;SDS011;41888;44.696;10.522;2024-01-16T11:47:22;47.03;;;26.65;;
56005;SDS011;41888;44.696;10.522;2024-01-16T11:52:45;37.47;;;21.48;;
56005;SDS011;41888;44.696;10.522;2024-01-16T12:00:36;35.72;;;22.00;;
56005;SDS011;41888;44.696;10.522;2024-01-16T12:03:06;31.63;;;20.58;;
56005;SDS011;41888;44.696;10.522;2024-01-16T12:05:33;39.28;;;23.00;;
56005;SDS011;41888;44.696;10.522;2024-01-16T12:07:59;36.00;;;21.77;;
56005;SDS011;41888;44.696;10.522;2024-01-16T12:10:28;35.42;;;21.70;;
56005;SDS011;41888;44.696;10.522;2024-01-16T12:12:58;33.03;;;21.30;;
56005;SDS011;41888;44.696;10.522;2024-01-16T12:15:25;32.80;;;21.33;;
56005;SDS011;41888;44.696;10.522;2024-01-16T12:18:01;36.10;;;22.48;;
56005;SDS011;41888;44.696;10.522;2024-01-16T12:20:32;38.70;;;22.33;;
56005;SDS011;41888;44.696;10.522;2024-01-16T12:23:00;43.10;;;24.92;;
56005;SDS011;41888;44.696;10.522;2024-01-16T12:25:31;37.22;;;23.02;;
56005;SDS011;41888;44.696;10.522;2024-01-16T12:27:59;34.80;;;22.20;;
56005;SDS011;41888;44.696;10.522;2024-01-16T12:30:26;40.60;;;24.10;;
56005;SDS011;41888;44.696;10.522;2024-01-16T12:33:10;38.05;;;23.58;;
56005;SDS011;41888;44.696;10.522;2024-01-16T12:35:41;44.42;;;23.95;;
56005;SDS011;41888;44.696;10.522;2024-01-16T12:38:10;38.50;;;21.92;;
56005;SDS011;41888;44.696;10.522;2024-01-16T12:40:41;39.17;;;23.08;;
56005;SDS011;41888;44.696;10.522;2024-01-16T12:43:18;37.95;;;23.38;;
56005;SDS011;41888;44.696;10.522;2024-01-16T12:45:44;35.63;;;22.02;;
56005;SDS011;41888;44.696;10.522;2024-01-16T12:48:11;38.08;;;23.27;;
56005;SDS011;41888;44.696;10.522;2024-01-16T12:50:37;36.70;;;22.80;;
56005;SDS011;41888;44.696;10.522;2024-01-16T12:53:07;40.15;;;24.92;;
56005;SDS011;41888;44.696;10.522;2024-01-16T12:55:39;35.33;;;22.17;;
56005;SDS011;41888;44.696;10.522;2024-01-16T12:58:15;34.00;;;22.17;;
56005;SDS011;41888;44.696;10.522;2024-01-16T13:00:48;34.53;;;21.60;;
56005;SDS011;41888;44.696;10.522;2024-01-16T13:03:22;40.40;;;23.05;;
56005;SDS011;41888;44.696;10.522;2024-01-16T13:05:59;36.40;;;21.98;;
56005;SDS011;41888;44.696;10.522;2024-01-16T13:08:26;38.75;;;23.50;;
56005;SDS011;41888;44.696;10.522;2024-01-16T13:11:03;38.42;;;22.88;;
56005;SDS011;41888;44.696;10.522;2024-01-16T13:13:30;36.92;;;21.75;;
56005;SDS011;41888;44.696;10.522;2024-01-16T13:15:57;38.05;;;23.85;;
56005;SDS011;41888;44.696;10.522;2024-01-16T13:18:25;35.70;;;21.55;;
56005;SDS011;41888;44.696;10.522;2024-01-16T13:20:53;34.70;;;22.55;;
56005;SDS011;41888;44.696;10.522;2024-01-16T13:23:24;37.83;;;22.15;;
56005;SDS011;41888;44.696;10.522;2024-01-16T13:25:52;40.05;;;22.67;;
56005;SDS011;41888;44.696;10.522;2024-01-16T13:28:20;36.83;;;22.05;;
56005;SDS011;41888;44.696;10.522;2024-01-16T13:30:47;33.05;;;20.70;;
56005;SDS011;41888;44.696;10.522;2024-01-16T13:33:14;37.28;;;21.77;;
56005;SDS011;41888;44.696;10.522;2024-01-16T13:35:42;36.60;;;21.02;;
56005;SDS011;41888;44.696;10.522;2024-01-16T13:38:09;41.22;;;22.90;;
56005;SDS011;41888;44.696;10.522;2024-01-16T13:40:36;38.83;;;23.33;;
56005;SDS011;41888;44.696;10.522;2024-01-16T13:43:03;38.70;;;23.13;;
56005;SDS011;41888;44.696;10.522;2024-01-16T13:45:31;38.05;;;23.05;;
56005;SDS011;41888;44.696;10.522;2024-01-16T13:47:58;64.15;;;25.25;;
56005;SDS011;41888;44.696;10.522;2024-01-16T13:50:26;39.65;;;22.30;;
56005;SDS011;41888;44.696;10.522;2024-01-16T13:52:52;44.22;;;24.23;;
56005;SDS011;41888;44.696;10.522;2024-01-16T13:55:19;43.00;;;24.95;;
56005;SDS011;41888;44.696;10.522;2024-01-16T13:57:46;40.30;;;24.38;;
56005;SDS011;41888;44.696;10.522;2024-01-16T14:00:13;43.78;;;24.05;;
56005;SDS011;41888;44.696;10.522;2024-01-16T14:05:11;42.35;;;24.48;;
56005;SDS011;41888;44.696;10.522;2024-01-16T14:07:42;48.22;;;25.90;;
56005;SDS011;41888;44.696;10.522;2024-01-16T14:10:15;61.28;;;28.15;;
56005;SDS011;41888;44.696;10.522;2024-01-16T14:12:43;47.47;;;24.23;;
56005;SDS011;41888;44.696;10.522;2024-01-16T14:15:10;45.67;;;24.27;;
56005;SDS011;41888;44.696;10.522;2024-01-16T14:17:54;39.95;;;21.40;;
56005;SDS011;41888;44.696;10.522;2024-01-16T14:20:22;38.80;;;22.38;;
56005;SDS011;41888;44.696;10.522;2024-01-16T14:22:51;38.35;;;21.40;;
56005;SDS011;41888;44.696;10.522;2024-01-16T14:25:21;36.17;;;22.00;;
56005;SDS011;41888;44.696;10.522;2024-01-16T14:27:57;40.45;;;22.70;;
56005;SDS011;41888;44.696;10.522;2024-01-16T14:30:25;40.95;;;24.10;;